Sherry, Wisconsin
Current Conditions -  °F | °C
As of 11:54 AM on Thursday 30 Oct 2014 (Local Time) from KMFI Reporting Station
Overcast Overcast  
Wind Chill: 46°   Ceiling: 6000
Heat Index: 46°   Visibility: 10mi
Dew Point: 36°   Wind: 3mph
Humidity: 68%   Direction: NA
Pressure: 30.06"   Gusts: NA
Location:  44.6004°N, 89.889°W
Report Text: KMFI 301654Z AUTO VRB03KT 10SM OVC060 08/02 A3006 RMK AO2 SLP192 T00780022
Loading
Personal Weather Stations






























Interactive Weather Map
Tropical Storm Tracking
New forecast layout! Learn more

10-Day Weather Forecast

Advertisements
Track Severe Weather on mobile